WetterOnline ( https://www.wetteronline.de )

Wetter aktuell Nümbrecht

Aktuelles Wetter: Königswinter-Heiderhof (147m)

6-stündlich | Neueste Meldungen
Ortszeit Temperatur Wetter
Do, 13.05. 8:00 9.3° C bedeckt
Do, 13.05. 2:00 8.2° C wolkenlos
Mi, 12.05. 20:00 13.9° C bewölkt
Mi, 12.05. 14:00 15.0° C bewölkt
Mi, 12.05. 8:00 11.5° C bedeckt
Mi, 12.05. 2:00 10.2° C wolkig
Di, 11.05. 20:00 13.6° C bedeckt
Di, 11.05. 14:00 14.5° C leichter Regen
Ortszeit Temperatur Wetter
Do, 13.05. 9:30 12.3° C fast wolkenlos
Do, 13.05. 9:20 12.3° C fast wolkenlos
Do, 13.05. 9:10 11.7° C leicht bewölkt
Do, 13.05. 9:00 11.3° C wolkenlos
Do, 13.05. 8:50 11.3° C wolkenlos
Do, 13.05. 8:40 10.9° C wolkenlos
Do, 13.05. 8:30 11.4° C leicht bewölkt
Do, 13.05. 8:00 9.3° C bedeckt
Do, 13.05. 7:30 8.9° C bedeckt
Do, 13.05. 7:00 6.3° C bewölkt
Do, 13.05. 6:30 6.4° C fast wolkenlos
Do, 13.05. 6:00 5.9° C wolkig
Ortszeit Relative Feuchte Sichtweite
Do, 13.05. 8:00 87% 19 km
Do, 13.05. 2:00 91% 45 km
Mi, 12.05. 20:00 66% >70 km
Mi, 12.05. 14:00 57% 45 km
Mi, 12.05. 8:00 87% 24 km
Mi, 12.05. 2:00 93% 30 km
Di, 11.05. 20:00 86% 35 km
Di, 11.05. 14:00 84% 29 km
Ortszeit Relative Feuchte Sichtweite
Do, 13.05. 9:30 78% 45 km
Do, 13.05. 9:20 78% -
Do, 13.05. 9:10 79% -
Do, 13.05. 9:00 82% 27 km
Do, 13.05. 8:50 82% -
Do, 13.05. 8:40 85% -
Do, 13.05. 8:30 81% 30 km
Do, 13.05. 8:00 87% 19 km
Do, 13.05. 7:30 87% 14 km
Do, 13.05. 7:00 95% 5.0 km
Do, 13.05. 6:30 97% 8 km
Do, 13.05. 6:00 97% 13 km
Ortszeit Niederschlagsmenge Niederschlagsart
Do, 13.05. 8:00 0.0 l/m2 in 12 Std. -
Do, 13.05. 2:00 0.0 l/m2 in 6 Std. -
Mi, 12.05. 20:00 0.1 l/m2 in 12 Std. Regen
Mi, 12.05. 14:00 0.0 l/m2 in 6 Std. -
Mi, 12.05. 8:00 0.1 l/m2 in 12 Std. -
Mi, 12.05. 2:00 0.1 l/m2 in 6 Std. Regen
Di, 11.05. 20:00 1 l/m2 in 12 Std. Regen
Di, 11.05. 14:00 0.1 l/m2 in 6 Std. Regen
Ortszeit Niederschlagsmenge Niederschlagsart
Do, 13.05. 9:30 0.0 l/m2 in 1 Std. -
Do, 13.05. 9:20 keine Meldung -
Do, 13.05. 9:10 keine Meldung -
Do, 13.05. 9:00 0.0 l/m2 in 1 Std. -
Do, 13.05. 8:50 keine Meldung -
Do, 13.05. 8:40 keine Meldung -
Do, 13.05. 8:30 0.0 l/m2 in 1 Std. -
Do, 13.05. 8:00 0.0 l/m2 in 1 Std. -
Do, 13.05. 7:30 0.0 l/m2 in 1 Std. -
Do, 13.05. 7:00 0.0 l/m2 in 1 Std. -
Do, 13.05. 6:30 0.0 l/m2 in 1 Std. -
Do, 13.05. 6:00 0.0 l/m2 in 1 Std. -
Ortszeit Stärke Spitze Richtung
km/h Bft. km/h Grad Sektor
Do, 13.05. 8:00 6 1 11 70° O
Do, 13.05. 2:00 0 0 18 - -
Mi, 12.05. 20:00 7 2 25 320° NW
Mi, 12.05. 14:00 7 2 15 290° W
Mi, 12.05. 8:00 7 2 22 250° W
Mi, 12.05. 2:00 14 3 29 240° SW
Di, 11.05. 20:00 6 1 26 280° W
Di, 11.05. 14:00 9 2 15 130° SO
Ortszeit Stärke Spitze Richtung
km/h Bft. km/h Grad Sektor
Do, 13.05. 9:30 4 1 7 260° W
Do, 13.05. 9:20 4 1 - 260° W
Do, 13.05. 9:10 6 1 - 220° SW
Do, 13.05. 9:00 7 2 11 230° SW
Do, 13.05. 8:50 7 2 - 230° SW
Do, 13.05. 8:40 9 2 - 230° SW
Do, 13.05. 8:30 4 1 11 140° SO
Do, 13.05. 8:00 6 1 7 70° O
Do, 13.05. 7:30 2 1 6 130° SO
Do, 13.05. 7:00 4 1 7 100° O
Do, 13.05. 6:30 2 1 6 200° S
Do, 13.05. 6:00 4 1 7 150° SO
Ortszeit Untergrenze Bedeckung Gattung
total tief tief mittel hoch
Do, 13.05. 8:00 5100 m 8/8 8/8 - - -
Do, 13.05. 2:00 - 0/8 0/8 - - -
Mi, 12.05. 20:00 1500 m 7/8 7/8 - - -
Mi, 12.05. 14:00 1080 m 7/8 7/8 - - -
Mi, 12.05. 8:00 2700 m 8/8 8/8 - - -
Mi, 12.05. 2:00 960 m 8/8 1/8 - - -
Di, 11.05. 20:00 660 m 8/8 8/8 - - -
Di, 11.05. 14:00 1500 m 7/8 7/8 - - -
Ortszeit Bedeckungsgrad in Achtel und Wolkenuntergrenze
Do, 13.05. 9:30 1(5700m)
Do, 13.05. 9:20 1(5700m)
Do, 13.05. 9:10 2(5700m)
Do, 13.05. 9:00 keine Wolken
Do, 13.05. 8:50 keine Wolken
Do, 13.05. 8:40 keine Wolken
Do, 13.05. 8:30 3(5100m)
Do, 13.05. 8:00 8(5100m) 8(6000m)
Do, 13.05. 7:30 8(5100m) 8(6300m)
Do, 13.05. 7:00 7(5700m) 7(6300m)
Do, 13.05. 6:30 1(6000m)
Do, 13.05. 6:00 3(5400m) 8(7800m) 8(8400m)
Ortszeit Luftdruck NN (hPa) Tendenz (hPa in 3 Std.)
Do, 13.05. 8:00 1009 - 0,7
Do, 13.05. 2:00 1010 - 1,0
Mi, 12.05. 20:00 1010 0,0
Mi, 12.05. 14:00 1011 - 0,8
Mi, 12.05. 8:00 1012 + 0,6
Mi, 12.05. 2:00 1011 + 0,3
Di, 11.05. 20:00 1009 + 0,8
Di, 11.05. 14:00 1008 + 0,2
Ortszeit Luftdruck NN (hPa) Tendenz (hPa in 3 Std.)
Do, 13.05. 9:30 1008 - 0,6
Do, 13.05. 9:20 1008 keine Meldung
Do, 13.05. 9:10 1008 keine Meldung
Do, 13.05. 9:00 1008 - 0,8
Do, 13.05. 8:50 1008 keine Meldung
Do, 13.05. 8:40 1008 keine Meldung
Do, 13.05. 8:30 1008 - 0,8
Do, 13.05. 8:00 1009 - 0,7
Do, 13.05. 7:30 1009 - 0,5
Do, 13.05. 7:00 1009 - 0,6
Do, 13.05. 6:30 1009 - 0,8
Do, 13.05. 6:00 1010 - 0,6
Ortszeit Schneehöhe (cm)
Do, 13.05. 8:00 0
Do, 13.05. 2:00 0
Mi, 12.05. 20:00 0
Mi, 12.05. 14:00 0
Mi, 12.05. 8:00 0
Mi, 12.05. 2:00 0
Di, 11.05. 20:00 0
Di, 11.05. 14:00 0
Ortszeit Schneehöhe (cm)
Do, 13.05. 9:30 0
Do, 13.05. 9:20 0
Do, 13.05. 9:10 0
Do, 13.05. 9:00 0
Do, 13.05. 8:50 0
Do, 13.05. 8:40 -
Do, 13.05. 8:30 -
Do, 13.05. 8:00 0
Do, 13.05. 7:30 -
Do, 13.05. 7:00 0
Do, 13.05. 6:30 0
Do, 13.05. 6:00 0
Link zu dieser Seite / Seite empfehlen

Das Wetter in ...